Change the Weather History Date:

Monday, July 22, 2013

  Actual Average Record
Temperature  
Mean Temperature 74 °F -  
Max Temperature 87 °F 82 °F 97 °F (1967)
Min Temperature 62 °F 60 °F 46 °F (2000)
Cooling Degree Days 10    
Growing Degree Days 24 (Base 50)    
Moisture  
Dew Point 63 °F    
Average Humidity 69    
Maximum Humidity 88    
Minimum Humidity 46    
Precipitation  
Precipitation 0.00 in - - ()
Sea Level Pressure  
Sea Level Pressure 29.79 in    
Wind  
Wind Speed 10 mph (West)    
Max Wind Speed 21 mph    
Max Gust Speed 25 mph    
Visibility 10 miles    
Events Rain    
Averages and records for this station are not official NWS values.
T = Trace of Precipitation, MM = Missing Value Source: NWS Daily Summary

Daily Weather History Graph

Daily Weather History Graph

Search for Another Location

Airport or City:

Trip Planner

Search our weather history database for the weather conditions in past years. The results will help you decide how hot, cold, wet, or windy it might be!

Date:

Astronomy

Jul. 22, 2013 Rise Set
Actual Time 5:58 AM CDT 8:54 PM CDT
Civil Twilight 5:24 AM CDT 9:28 PM CDT
Nautical Twilight 4:41 AM CDT 10:11 PM CDT
Astronomical Twilight 3:49 AM CDT 11:02 PM CDT
Moon 8:37 PM CDT (7/22) 5:58 AM CDT (7/22)
Length of Visible Light 16h 03m
Length of Day
14h 55m
Full, 100% of the Moon is Illuminated
Jul 22
Full
Jul 22
Full
Jul 29
Last Quarter
Aug 6
New
Aug 14
First Quarter

Hourly Weather History & Observations

Time (CDT) Temp. Heat Index Dew Point Humidity Pressure Visibility Wind Dir Wind Speed Gust Speed Precip Events Conditions
12:12 AM 73.4 °F - 66.2 °F 78% 29.81 in 10.0 mi SSE 10.4 mph - N/A   Clear
12:33 AM 71.6 °F - 66.2 °F 83% 29.81 in 10.0 mi SSE 8.1 mph - N/A   Clear
12:52 AM 71.6 °F - 66.2 °F 83% 29.79 in 10.0 mi SSE 6.9 mph - N/A   Clear
1:12 AM 71.6 °F - 66.2 °F 83% 29.78 in 10.0 mi SSE 6.9 mph - N/A   Clear
1:33 AM 71.6 °F - 66.2 °F 83% 29.79 in 10.0 mi South 8.1 mph - N/A   Clear
1:52 AM 71.6 °F - 66.2 °F 83% 29.78 in 10.0 mi South 8.1 mph - N/A   Clear
2:12 AM 71.6 °F - 66.2 °F 83% 29.79 in 10.0 mi South 5.8 mph - N/A   Clear
2:33 AM 69.8 °F - 66.2 °F 88% 29.79 in 10.0 mi South 3.5 mph - N/A   Clear
2:52 AM 69.8 °F - 66.2 °F 88% 29.79 in 10.0 mi Calm Calm - N/A   Clear
3:12 AM 69.8 °F - 66.2 °F 88% 29.79 in 10.0 mi South 6.9 mph - N/A   Clear
3:32 AM 69.8 °F - 66.2 °F 88% 29.78 in 10.0 mi South 9.2 mph - N/A   Clear
3:52 AM 69.8 °F - 66.2 °F 88% 29.78 in 10.0 mi South 6.9 mph - N/A   Clear
4:13 AM 69.8 °F - 66.2 °F 88% 29.76 in 10.0 mi South 8.1 mph - N/A   Clear
4:32 AM 69.8 °F - 66.2 °F 88% 29.76 in 10.0 mi South 6.9 mph - N/A   Clear
4:52 AM 69.8 °F - 66.2 °F 88% 29.76 in 10.0 mi South 6.9 mph - N/A   Clear
5:12 AM 69.8 °F - 66.2 °F 88% 29.76 in 10.0 mi South 6.9 mph - N/A   Clear
5:32 AM 69.8 °F - 66.2 °F 88% 29.75 in 10.0 mi South 8.1 mph - N/A   Clear
5:52 AM 69.8 °F - 66.2 °F 88% 29.75 in 10.0 mi South 6.9 mph - N/A   Clear
6:12 AM 69.8 °F - 66.2 °F 88% 29.75 in 10.0 mi South 8.1 mph - N/A   Scattered Clouds
6:33 AM 69.8 °F - 66.2 °F 88% 29.75 in 10.0 mi South 5.8 mph - N/A   Clear
6:52 AM 71.6 °F - 66.2 °F 83% 29.76 in 10.0 mi South 6.9 mph - N/A   Scattered Clouds
7:12 AM 71.6 °F - 66.2 °F 83% 29.78 in 10.0 mi WSW 6.9 mph - N/A   Scattered Clouds
7:33 AM 69.8 °F - 66.2 °F 88% 29.77 in 10.0 mi SW 5.8 mph - N/A   Clear
7:52 AM 69.8 °F - 66.2 °F 88% 29.76 in 10.0 mi SSW 12.7 mph - N/A   Clear
8:12 AM 69.8 °F - 66.2 °F 88% 29.75 in 10.0 mi SSW 12.7 mph - N/A   Clear
8:32 AM 71.6 °F - 66.2 °F 83% 29.75 in 10.0 mi SW 13.8 mph 20.7 mph N/A   Clear
8:52 AM 71.6 °F - 66.2 °F 83% 29.77 in 10.0 mi WSW 12.7 mph 18.4 mph N/A Rain Light Rain
9:13 AM 71.6 °F - 62.6 °F 73% 29.70 in 10.0 mi ESE 12.7 mph - N/A Rain Light Rain
9:32 AM 78.8 °F - 57.2 °F 47% 29.72 in 10.0 mi SW 6.9 mph - N/A   Scattered Clouds
9:52 AM 75.2 °F - 60.8 °F 61% 29.73 in 10.0 mi SSW 5.8 mph - N/A   Clear
10:13 AM 78.8 °F - 57.2 °F 47% 29.73 in 10.0 mi SW 11.5 mph - N/A   Scattered Clouds
10:32 AM 78.8 °F - 60.8 °F 54% 29.73 in 10.0 mi West 10.4 mph - N/A   Scattered Clouds
10:52 AM 82.4 °F 82.9 °F 60.8 °F 48% 29.73 in 10.0 mi WSW 15.0 mph - N/A   Clear
11:13 AM 84.2 °F 85.0 °F 62.6 °F 48% 29.74 in 10.0 mi WSW 10.4 mph - N/A   Clear
11:32 AM 87.8 °F 90.4 °F 66.2 °F 49% 29.74 in 10.0 mi West 17.3 mph 21.9 mph N/A   Clear
11:52 AM 87.8 °F 90.4 °F 66.2 °F 49% 29.74 in 10.0 mi West 18.4 mph 25.3 mph N/A   Clear
12:13 PM 87.8 °F 89.4 °F 64.4 °F 46% 29.75 in 10.0 mi West 20.7 mph 25.3 mph N/A   Clear
12:32 PM 86.0 °F 88.2 °F 66.2 °F 51% 29.76 in 10.0 mi WNW 18.4 mph 24.2 mph N/A   Clear
12:52 PM 86.0 °F 88.2 °F 66.2 °F 51% 29.76 in 10.0 mi WNW 18.4 mph 24.2 mph N/A   Clear
1:13 PM 84.2 °F 87.3 °F 68.0 °F 58% 29.76 in 10.0 mi NW 15.0 mph 21.9 mph N/A   Scattered Clouds
1:32 PM 84.2 °F 87.3 °F 68.0 °F 58% 29.77 in 10.0 mi NW 12.7 mph - N/A   Scattered Clouds
1:52 PM 82.4 °F 86.3 °F 69.8 °F 66% 29.77 in 10.0 mi NW 17.3 mph - N/A   Scattered Clouds
2:11 PM 84.2 °F 87.3 °F 68.0 °F 58% 29.78 in 10.0 mi NW 15.0 mph 19.6 mph N/A   Scattered Clouds
2:51 PM 84.2 °F - - N/A% 29.78 in - NNW 17.3 mph 23.0 mph N/A   Unknown
2:53 PM 84.2 °F 85.6 °F 64.4 °F 51% 29.78 in - NNW 13.8 mph 23.0 mph N/A   Unknown
3:12 PM 84.2 °F 85.0 °F 62.6 °F 48% 29.78 in 10.0 mi WNW 15.0 mph 21.9 mph N/A   Clear
3:32 PM 84.2 °F 85.0 °F 62.6 °F 48% 29.79 in 10.0 mi NW 15.0 mph 20.7 mph N/A   Scattered Clouds
3:53 PM 82.4 °F 83.4 °F 62.6 °F 51% 29.79 in 10.0 mi NW 12.7 mph - N/A   Scattered Clouds
4:12 PM 82.4 °F 83.4 °F 62.6 °F 51% 29.79 in 10.0 mi NW 13.8 mph 21.9 mph N/A   Scattered Clouds
4:32 PM 82.4 °F 83.4 °F 62.6 °F 51% 29.79 in 10.0 mi NW 13.8 mph - N/A   Clear
4:53 PM 82.4 °F 83.4 °F 62.6 °F 51% 29.79 in 10.0 mi NNW 17.3 mph 25.3 mph N/A   Scattered Clouds
5:12 PM 80.6 °F 81.8 °F 62.6 °F 54% 29.79 in 10.0 mi NNW 18.4 mph - N/A   Scattered Clouds
5:32 PM 80.6 °F 81.8 °F 62.6 °F 54% 29.80 in 10.0 mi NNW 15.0 mph 21.9 mph N/A   Clear
5:53 PM 80.6 °F 81.8 °F 62.6 °F 54% 29.79 in 10.0 mi NNW 19.6 mph 23.0 mph N/A   Clear
6:12 PM 78.8 °F - 60.8 °F 54% 29.79 in 10.0 mi NNW 16.1 mph 23.0 mph N/A   Scattered Clouds
6:32 PM 78.8 °F - 60.8 °F 54% 29.80 in 10.0 mi NW 17.3 mph 23.0 mph N/A   Clear
6:53 PM 78.8 °F - 60.8 °F 54% 29.80 in 10.0 mi NW 18.4 mph 21.9 mph N/A   Clear
7:12 PM 75.2 °F - 60.8 °F 61% 29.81 in 10.0 mi NNW 19.6 mph 23.0 mph N/A   Scattered Clouds
7:32 PM 75.2 °F - 60.8 °F 61% 29.82 in 10.0 mi NW 19.6 mph 23.0 mph N/A   Clear
7:53 PM 73.4 °F - 60.8 °F 65% 29.83 in 10.0 mi NNW 13.8 mph - N/A   Clear
8:12 PM 73.4 °F - 59.0 °F 61% 29.84 in 10.0 mi NNW 13.8 mph - N/A   Clear
8:32 PM 71.6 °F - 59.0 °F 64% 29.85 in 10.0 mi North 8.1 mph - N/A   Scattered Clouds
8:53 PM 69.8 °F - 57.2 °F 64% 29.86 in 10.0 mi NNW 12.7 mph - N/A   Clear
9:12 PM 69.8 °F - 57.2 °F 64% 29.86 in 10.0 mi NNW 10.4 mph - N/A   Scattered Clouds
9:32 PM 69.8 °F - 57.2 °F 64% 29.87 in 10.0 mi North 11.5 mph - N/A   Mostly Cloudy
9:53 PM 68.0 °F - 57.2 °F 68% 29.88 in 10.0 mi NNW 8.1 mph - N/A   Overcast
10:12 PM 68.0 °F - 57.2 °F 68% 29.90 in 10.0 mi Calm Calm - N/A   Overcast
10:32 PM 68.0 °F - 57.2 °F 68% 29.90 in 10.0 mi Calm Calm - N/A   Overcast
10:53 PM 66.2 °F - 57.2 °F 73% 29.91 in 10.0 mi NNW 4.6 mph - N/A   Overcast
11:12 PM 64.4 °F - 57.2 °F 77% 29.92 in 10.0 mi Calm Calm - N/A   Scattered Clouds
11:32 PM 62.6 °F - 55.4 °F 77% 29.92 in 10.0 mi NW 4.6 mph - N/A   Clear
11:53 PM 62.6 °F - 55.4 °F 77% 29.92 in 10.0 mi NNW 6.9 mph - N/A   Clear